Time;durP1;ratioP1;P1;durP2;ratioP2;P2;SDS_P1;SDS_P2;PMS_P1;PMS_P2;Temp;Humidity;BMP_temperature;BMP_pressure;BME280_temperature;BME280_humidity;BME280_pressure;Samples;Min_cycle;Max_cycle;Signal;HPM_P1;HPM_P2
2022/08/13 00:04:32;;;;;;;9.38;8.40;;;;;;;22.81;75.96;99870.55;1679436;85;21044;-77
2022/08/13 00:07:08;;;;;;;10.38;8.43;;;;;;;22.81;75.96;99858.20;1736292;82;21012;-75
2022/08/13 00:09:39;;;;;;;8.90;7.95;;;;;;;22.80;75.95;99857.95;1741245;82;21045;-76
2022/08/13 00:14:59;;;;;;;14.65;10.38;;;;;;;22.80;75.48;99840.94;1736238;81;21285;-76
2022/08/13 00:17:26;;;;;;;10.28;8.30;;;;;;;22.82;75.28;99833.77;1709583;83;21142;-78
2022/08/13 00:19:53;;;;;;;14.38;8.60;;;;;;;22.84;74.93;99835.03;1673233;85;21056;-75
2022/08/13 00:22:23;;;;;;;10.28;7.78;;;;;;;22.86;74.54;99815.52;1674218;84;20988;-76
2022/08/13 00:24:49;;;;;;;9.48;7.60;;;;;;;22.82;74.54;99808.52;1679076;83;21062;-75
2022/08/13 00:27:16;;;;;;;8.05;7.25;;;;;;;22.80;74.46;99812.70;1704466;83;21010;-77
2022/08/13 00:29:43;;;;;;;9.30;7.60;;;;;;;22.76;74.47;99807.64;1700647;84;22051;-76
2022/08/13 00:32:10;;;;;;;9.90;7.53;;;;;;;22.73;74.52;99802.26;1704578;83;20962;-76
2022/08/13 00:34:36;;;;;;;8.20;6.85;;;;;;;22.76;74.35;99807.64;1723954;82;20990;-75
2022/08/13 00:37:09;;;;;;;9.98;7.33;;;;;;;22.71;73.80;99811.37;1696955;83;21552;-75
2022/08/13 00:39:33;;;;;;;8.13;7.22;;;;;;;22.68;73.91;99821.59;1705438;82;21085;-75
2022/08/13 00:42:01;;;;;;;10.25;7.80;;;;;;;22.51;74.40;99813.40;1702733;82;21557;-77
2022/08/13 00:44:31;;;;;;;13.65;7.75;;;;;;;22.34;75.47;99803.84;1716705;82;20998;-76
2022/08/13 00:49:43;;;;;;;14.40;8.00;;;;;;;22.06;77.38;99795.18;1704356;82;21054;-74
2022/08/13 00:52:10;;;;;;;6.80;6.15;;;;;;;22.09;77.21;99800.81;1704767;84;20938;-73
2022/08/13 00:54:40;;;;;;;13.25;7.67;;;;;;;22.11;77.20;99789.51;1720744;83;21173;-73
2022/08/13 00:57:07;;;;;;;8.73;7.12;;;;;;;22.13;77.03;99786.70;1734995;82;20918;-74
2022/08/13 00:59:34;;;;;;;8.15;6.53;;;;;;;22.13;77.19;99792.18;1736528;82;21004;-73
2022/08/13 01:02:01;;;;;;;10.53;7.40;;;;;;;22.14;77.17;99792.43;1724834;83;21601;-73
2022/08/13 01:04:28;;;;;;;8.35;7.55;;;;;;;22.10;77.59;99784.62;1698092;82;21049;-76
2022/08/13 01:06:57;;;;;;;11.15;6.85;;;;;;;22.07;77.79;99784.44;1698191;83;21041;-74
2022/08/13 01:09:29;;;;;;;8.23;6.75;;;;;;;22.05;77.79;99786.72;1702742;84;21061;-74
2022/08/13 01:11:58;;;;;;;7.72;6.92;;;;;;;22.06;77.82;99786.97;1703301;84;21022;-74
2022/08/13 01:14:32;;;;;;;15.32;7.35;;;;;;;22.09;77.79;99784.38;1703898;83;21016;-73
2022/08/13 01:17:01;;;;;;;9.13;7.55;;;;;;;22.11;77.69;99778.55;1711098;83;21016;-74
2022/08/13 01:19:28;;;;;;;8.53;7.35;;;;;;;22.12;77.51;99782.91;1707132;82;21534;-74
2022/08/13 01:21:57;;;;;;;7.85;6.95;;;;;;;22.11;77.49;99775.25;1703480;82;20974;-74
2022/08/13 01:24:24;;;;;;;8.10;7.30;;;;;;;22.14;77.47;99786.14;1705304;83;21020;-72
2022/08/13 01:26:53;;;;;;;7.75;7.00;;;;;;;22.10;77.53;99790.09;1740330;81;21062;-74
2022/08/13 01:29:21;;;;;;;7.42;6.70;;;;;;;22.09;77.66;99795.33;1717132;82;21030;-75
2022/08/13 01:31:48;;;;;;;8.50;6.80;;;;;;;22.07;77.72;99796.20;1700750;84;22321;-74
2022/08/13 01:34:18;;;;;;;12.33;7.17;;;;;;;22.04;77.89;99792.76;1725758;82;21050;-76
2022/08/13 01:36:49;;;;;;;8.50;6.55;;;;;;;22.02;78.02;99792.82;1670433;84;21519;-74
2022/08/13 01:39:13;;;;;;;14.13;7.28;;;;;;;21.98;78.28;99795.41;1662672;85;21176;-74
2022/08/13 01:41:40;;;;;;;8.30;7.17;;;;;;;21.95;78.39;99782.38;1675369;85;21034;-74
2022/08/13 01:44:07;;;;;;;10.45;7.47;;;;;;;21.96;78.39;99789.47;1681342;84;21208;-74
2022/08/13 01:52:09;;;;;;;9.58;7.33;;;;;;;21.91;78.48;99776.46;1689654;83;21099;-75
2022/08/13 01:54:37;;;;;;;10.98;7.20;;;;;;;21.84;78.61;99779.67;1686096;83;21061;-76
2022/08/13 01:57:07;;;;;;;9.70;7.25;;;;;;;21.81;78.65;99780.33;1684249;84;21737;-77
2022/08/13 01:59:36;;;;;;;10.75;8.18;;;;;;;21.80;78.80;99779.27;1702993;84;21085;-77
2022/08/13 02:02:05;;;;;;;11.55;8.13;;;;;;;21.76;78.82;99781.86;1704413;83;21025;-76
2022/08/13 02:04:32;;;;;;;9.33;6.65;;;;;;;21.69;79.03;99778.77;1709354;83;21012;-77
2022/08/13 02:07:01;;;;;;;11.80;8.35;;;;;;;21.64;79.19;99772.90;1702315;83;21018;-76
2022/08/13 02:09:28;;;;;;;8.90;7.17;;;;;;;21.59;79.30;99774.98;1701017;83;21124;-76
2022/08/13 02:11:54;;;;;;;8.48;7.12;;;;;;;21.59;79.32;99766.21;1700687;84;21018;-77
2022/08/13 02:14:22;;;;;;;10.70;7.40;;;;;;;21.60;79.07;99768.39;1700793;83;20982;-78
2022/08/13 02:16:50;;;;;;;10.32;7.67;;;;;;;21.59;79.01;99762.10;1715587;83;20981;-76
2022/08/13 02:19:17;;;;;;;8.13;6.05;;;;;;;21.59;79.27;99764.84;1725111;82;21077;-80
2022/08/13 02:21:44;;;;;;;7.83;6.33;;;;;;;21.60;79.01;99769.75;1706243;82;21177;-78
2022/08/13 02:24:14;;;;;;;8.93;6.90;;;;;;;21.60;79.17;99756.87;1699082;84;20993;-78
2022/08/13 02:26:42;;;;;;;10.08;7.70;;;;;;;21.59;79.19;99750.34;1703390;83;21050;-76
2022/08/13 02:29:09;;;;;;;9.43;8.05;;;;;;;21.58;79.52;99759.70;1705617;82;21017;-76
2022/08/13 02:31:37;;;;;;;11.53;8.73;;;;;;;21.52;79.95;99763.72;1711315;82;21040;-78
2022/08/13 02:34:03;;;;;;;10.10;7.78;;;;;;;21.43;80.59;99754.70;1711178;83;21086;-76
2022/08/13 02:36:31;;;;;;;11.75;7.70;;;;;;;21.39;81.07;99744.15;1704032;82;20970;-75
2022/08/13 02:39:04;;;;;;;12.07;7.80;;;;;;;21.38;81.58;99743.90;1709444;83;20989;-76
2022/08/13 02:41:43;;;;;;;8.25;6.62;;;;;;;21.36;81.83;99740.66;1735657;81;21109;-76
2022/08/13 02:44:14;;;;;;;10.30;7.30;;;;;;;21.33;82.48;99742.69;1719617;82;21033;-76
2022/08/13 02:46:44;;;;;;;8.25;7.40;;;;;;;21.28;83.04;99740.34;1727453;82;21783;-75
2022/08/13 02:49:12;;;;;;;12.20;6.67;;;;;;;21.21;83.70;99735.90;1723707;82;21577;-79
2022/08/13 02:51:39;;;;;;;12.70;7.40;;;;;;;21.10;84.79;99739.23;1712370;83;20947;-77
2022/08/13 02:54:07;;;;;;;11.40;7.53;;;;;;;21.01;85.59;99739.75;1703059;84;21060;-77
2022/08/13 02:56:34;;;;;;;10.20;8.60;;;;;;;20.94;86.84;99738.86;1650327;85;20982;-78
2022/08/13 02:59:00;;;;;;;8.83;7.03;;;;;;;20.86;87.80;99728.13;1640476;85;21778;-78
2022/08/13 03:01:27;;;;;;;14.00;7.87;;;;;;;20.80;88.75;99716.30;1670364;84;20999;-78
2022/08/13 03:03:54;;;;;;;9.05;7.40;;;;;;;20.71;90.31;99727.21;1702075;83;20997;-77
2022/08/13 03:06:22;;;;;;;12.80;7.08;;;;;;;20.61;91.10;99693.88;1658156;86;21081;-75
2022/08/13 03:08:52;;;;;;;11.03;7.22;;;;;;;20.55;91.49;99717.81;1657420;86;21045;-75
2022/08/13 03:11:19;;;;;;;10.30;7.20;;;;;;;20.51;92.28;99711.36;1682025;85;21545;-75
2022/08/13 03:13:56;;;;;;;8.93;7.05;;;;;;;20.50;92.34;99708.94;1741011;82;21054;-75
2022/08/13 03:16:26;;;;;;;11.75;8.15;;;;;;;20.49;92.15;99714.96;1739854;82;21032;-75
2022/08/13 03:18:54;;;;;;;9.23;8.00;;;;;;;20.51;92.60;99703.73;1729939;82;21211;-75
2022/08/13 03:21:33;;;;;;;9.03;7.87;;;;;;;20.50;92.63;99719.31;1707980;83;21093;-76
2022/08/13 03:24:00;;;;;;;12.30;9.20;;;;;;;20.49;92.57;99708.69;1708090;83;21058;-76
2022/08/13 03:26:27;;;;;;;9.08;8.05;;;;;;;20.47;92.95;99715.85;1709555;82;20962;-75
2022/08/13 03:28:55;;;;;;;13.05;9.28;;;;;;;20.43;93.07;99710.19;1710584;82;20998;-76
2022/08/13 03:31:22;;;;;;;13.88;7.97;;;;;;;20.43;93.37;99726.58;1739874;82;20998;-76
2022/08/13 03:33:49;;;;;;;12.98;8.08;;;;;;;20.38;94.04;99719.11;1733986;82;21058;-74
2022/08/13 03:36:16;;;;;;;10.13;7.70;;;;;;;20.35;94.27;99732.01;1682444;83;21699;-75
2022/08/13 03:38:43;;;;;;;13.15;8.23;;;;;;;20.32;94.49;99735.38;1704733;83;21074;-77
2022/08/13 03:41:14;;;;;;;11.18;7.47;;;;;;;20.32;94.48;99723.89;1716407;82;20958;-76
2022/08/13 03:43:42;;;;;;;10.38;8.25;;;;;;;20.35;94.42;99723.25;1710302;83;21048;-77
2022/08/13 03:46:12;;;;;;;14.30;7.47;;;;;;;20.40;94.24;99714.92;1723741;83;21623;-77
2022/08/13 03:48:39;;;;;;;14.95;7.25;;;;;;;20.47;94.22;99718.59;1721343;82;21823;-76
2022/08/13 03:51:08;;;;;;;9.98;7.97;;;;;;;20.52;94.15;99716.27;1731215;82;20996;-77
2022/08/13 03:53:35;;;;;;;10.40;8.33;;;;;;;20.54;94.02;99704.45;1736171;81;21073;-74
2022/08/13 03:56:04;;;;;;;14.15;8.23;;;;;;;20.51;94.08;99726.39;1723343;83;21009;-75
2022/08/13 03:58:32;;;;;;;9.08;7.83;;;;;;;20.48;94.66;99729.73;1723857;83;21077;-75
2022/08/13 04:01:01;;;;;;;11.25;7.42;;;;;;;20.44;94.67;99724.66;1733828;82;21236;-75
2022/08/13 04:03:30;;;;;;;15.60;8.48;;;;;;;20.45;94.66;99723.55;1734433;82;20987;-74
2022/08/13 04:05:59;;;;;;;12.85;8.43;;;;;;;20.45;94.65;99740.75;1683313;84;21066;-75
2022/08/13 04:08:28;;;;;;;10.85;8.73;;;;;;;20.47;94.71;99751.93;1700830;84;20959;-74
2022/08/13 04:10:56;;;;;;;20.05;9.75;;;;;;;20.38;95.37;99778.63;1727420;82;21045;-76
2022/08/13 04:13:25;;;;;;;12.15;7.90;;;;;;;20.38;96.12;99791.50;1741493;82;21127;-75
2022/08/13 04:15:52;;;;;;;8.63;7.83;;;;;;;20.36;96.51;99789.63;1720843;82;21012;-75
2022/08/13 04:18:19;;;;;;;11.00;8.13;;;;;;;20.37;96.75;99793.42;1739549;82;21455;-74
2022/08/13 04:20:52;;;;;;;10.58;7.83;;;;;;;20.41;96.73;99801.24;1700990;81;21065;-75
2022/08/13 04:23:16;;;;;;;17.10;9.03;;;;;;;20.41;97.17;99810.80;1701760;83;21082;-76
2022/08/13 04:25:44;;;;;;;8.25;7.40;;;;;;;20.36;97.47;99819.69;1703118;84;21128;-75
2022/08/13 04:28:13;;;;;;;8.58;7.60;;;;;;;20.31;98.01;99812.42;1703568;82;21029;-76
2022/08/13 04:30:41;;;;;;;9.50;7.08;;;;;;;20.34;98.41;99819.17;1720679;81;21047;-76
2022/08/13 04:33:11;;;;;;;13.05;9.20;;;;;;;20.34;98.57;99810.42;1741743;82;21116;-76
2022/08/13 04:35:39;;;;;;;11.80;9.03;;;;;;;20.35;98.53;99807.13;1711524;82;21527;-77
2022/08/13 04:38:06;;;;;;;15.32;9.95;;;;;;;20.35;99.00;99798.94;1712638;82;21180;-77
2022/08/13 04:40:35;;;;;;;9.60;8.50;;;;;;;20.36;99.27;99801.92;1730734;82;21009;-79
2022/08/13 04:43:02;;;;;;;14.00;9.00;;;;;;;20.40;99.72;99785.96;1727891;82;21088;-79
2022/08/13 04:45:29;;;;;;;9.30;8.30;;;;;;;20.43;99.56;99787.28;1731191;82;21025;-77
2022/08/13 04:47:58;;;;;;;9.80;7.45;;;;;;;20.46;99.50;99777.08;1705525;82;21111;-76
2022/08/13 04:50:27;;;;;;;11.18;8.05;;;;;;;20.48;99.58;99772.67;1731923;81;21157;-76
2022/08/13 04:52:56;;;;;;;16.95;9.05;;;;;;;20.51;99.71;99772.84;1716927;83;20958;-76
2022/08/13 04:55:23;;;;;;;12.43;8.65;;;;;;;20.54;99.89;99768.11;1682874;83;21116;-76
2022/08/13 04:57:50;;;;;;;10.58;8.38;;;;;;;20.55;100.00;99762.09;1713781;82;20950;-77
2022/08/13 05:00:24;;;;;;;13.55;8.95;;;;;;;20.60;99.95;99763.33;1716906;82;21076;-74
2022/08/13 05:02:54;;;;;;;10.95;8.80;;;;;;;20.62;99.96;99768.73;1710445;82;21070;-77
2022/08/13 05:05:24;;;;;;;15.53;11.60;;;;;;;20.63;99.33;99774.42;1709857;83;21573;-75
2022/08/13 05:07:52;;;;;;;11.85;9.20;;;;;;;20.64;99.86;99777.97;1710584;82;20981;-76
2022/08/13 05:10:20;;;;;;;10.20;9.10;;;;;;;20.70;99.65;99780.82;1722292;82;21033;-76
2022/08/13 05:12:47;;;;;;;10.32;8.75;;;;;;;20.73;99.24;99770.61;1741132;82;21030;-76
2022/08/13 05:15:14;;;;;;;15.32;9.75;;;;;;;20.73;99.12;99752.84;1740978;82;21132;-76
2022/08/13 05:17:43;;;;;;;11.95;8.33;;;;;;;20.76;98.81;99743.47;1731235;82;21622;-76
2022/08/13 05:20:13;;;;;;;9.25;8.18;;;;;;;20.77;98.46;99751.08;1716028;82;21026;-74
2022/08/13 05:22:39;;;;;;;11.05;8.63;;;;;;;20.77;98.49;99746.98;1737513;82;21020;-77
2022/08/13 05:25:07;;;;;;;16.10;9.33;;;;;;;20.75;99.17;99741.05;1651359;86;21042;-76
2022/08/13 05:27:36;;;;;;;9.93;8.70;;;;;;;20.73;99.35;99737.25;1631034;86;21138;-76
2022/08/13 05:30:06;;;;;;;15.90;8.98;;;;;;;20.78;99.63;99732.20;1654027;83;21069;-78
2022/08/13 05:32:38;;;;;;;14.25;9.43;;;;;;;20.82;99.42;99729.88;1669116;86;21005;-76
2022/08/13 05:35:08;;;;;;;18.32;11.28;;;;;;;20.83;99.50;99720.56;1668863;86;21045;-78
2022/08/13 05:37:35;;;;;;;14.10;10.13;;;;;;;20.86;99.73;99717.77;1666577;85;21084;-75
2022/08/13 05:40:02;;;;;;;11.55;8.60;;;;;;;20.91;99.33;99717.60;1660182;84;21533;-75
2022/08/13 05:42:33;;;;;;;15.30;8.38;;;;;;;20.95;98.84;99718.60;1671124;85;21597;-76
2022/08/13 05:44:59;;;;;;;10.55;8.88;;;;;;;20.99;98.49;99714.66;1671031;85;21050;-76
2022/08/13 05:47:27;;;;;;;14.85;10.45;;;;;;;21.00;97.96;99721.20;1670922;85;21526;-76
2022/08/13 05:49:55;;;;;;;11.95;9.05;;;;;;;20.98;98.22;99722.06;1671554;84;21095;-77
2022/08/13 05:52:25;;;;;;;9.25;8.35;;;;;;;21.03;98.67;99724.65;1675327;84;21796;-74
2022/08/13 05:54:56;;;;;;;12.73;9.33;;;;;;;21.10;98.17;99725.56;1670630;85;21533;-75
2022/08/13 05:57:21;;;;;;;18.30;12.05;;;;;;;21.18;98.27;99720.13;1670966;85;21572;-75
2022/08/13 06:05:25;;;;;;;15.50;10.80;;;;;;;21.24;96.29;99725.70;1705297;84;22455;-80
2022/08/13 06:07:52;;;;;;;15.60;12.30;;;;;;;21.29;95.92;99731.58;1680359;83;20958;-80
2022/08/13 06:10:19;;;;;;;16.37;9.53;;;;;;;21.36;95.72;99739.30;1673459;85;21069;-83
2022/08/13 06:12:47;;;;;;;13.30;9.68;;;;;;;21.38;94.88;99732.40;1671454;83;22502;-78
2022/08/13 06:15:14;;;;;;;10.78;9.65;;;;;;;21.42;94.42;99738.84;1672643;84;21031;-79
2022/08/13 06:17:41;;;;;;;11.38;9.55;;;;;;;21.48;94.48;99732.65;1671168;85;21523;-77
2022/08/13 06:20:10;;;;;;;12.03;8.90;;;;;;;21.53;93.80;99726.45;1663592;84;21060;-79
2022/08/13 06:22:37;;;;;;;11.35;9.13;;;;;;;21.58;93.41;99726.27;1681537;83;21509;-78
2022/08/13 06:25:06;;;;;;;10.63;9.50;;;;;;;21.66;93.37;99726.86;1671226;85;20967;-73
2022/08/13 06:27:34;;;;;;;12.15;9.58;;;;;;;21.75;93.29;99729.58;1647600;85;21562;-74
2022/08/13 06:30:01;;;;;;;13.53;10.03;;;;;;;21.84;92.82;99734.48;1671274;84;21233;-73
2022/08/13 06:32:28;;;;;;;17.20;11.30;;;;;;;21.90;92.85;99742.79;1701214;83;21003;-71
2022/08/13 06:34:58;;;;;;;18.73;11.20;;;;;;;21.94;91.80;99738.30;1677956;85;21077;-72
2022/08/13 06:37:25;;;;;;;15.38;10.88;;;;;;;21.98;91.50;99740.63;1717331;83;20938;-74
2022/08/13 06:39:52;;;;;;;14.45;11.20;;;;;;;22.03;90.79;99745.94;1681479;83;21037;-72
2022/08/13 06:42:19;;;;;;;15.45;10.08;;;;;;;22.07;90.76;99736.50;1723310;82;21498;-72
2022/08/13 06:44:45;;;;;;;17.50;9.70;;;;;;;22.14;90.24;99740.38;1722669;81;21042;-74
2022/08/13 06:47:12;;;;;;;14.10;11.38;;;;;;;22.19;89.72;99738.02;1710286;82;21101;-72
2022/08/13 06:49:39;;;;;;;15.53;12.35;;;;;;;22.27;89.84;99737.75;1710075;82;21060;-73
2022/08/13 06:52:07;;;;;;;17.60;11.00;;;;;;;22.30;88.89;99737.90;1669508;84;21595;-73
2022/08/13 06:54:34;;;;;;;18.75;11.93;;;;;;;22.32;88.15;99738.39;1682960;83;21107;-73
2022/08/13 06:57:01;;;;;;;13.18;11.78;;;;;;;22.35;87.92;99725.39;1695863;83;21580;-73
2022/08/13 06:59:33;;;;;;;21.37;11.55;;;;;;;22.39;88.29;99724.20;1692714;83;21036;-74
2022/08/13 07:02:01;;;;;;;17.70;10.72;;;;;;;22.41;88.67;99726.84;1678057;83;21088;-73
2022/08/13 07:04:28;;;;;;;13.28;10.50;;;;;;;22.41;88.59;99727.40;1695157;83;21059;-76
2022/08/13 07:06:55;;;;;;;14.15;12.10;;;;;;;22.39;88.19;99746.12;1667479;84;22330;-74
2022/08/13 07:09:22;;;;;;;12.10;10.85;;;;;;;22.36;87.79;99752.23;1738201;82;21036;-75
2022/08/13 07:11:49;;;;;;;16.62;10.32;;;;;;;22.35;87.89;99752.02;1742734;81;21075;-72
2022/08/13 07:14:16;;;;;;;13.50;11.48;;;;;;;22.37;87.94;99752.48;1734618;82;21053;-72
2022/08/13 07:16:44;;;;;;;22.02;12.40;;;;;;;22.35;88.04;99744.58;1716175;82;21112;-76
2022/08/13 07:19:11;;;;;;;13.65;11.60;;;;;;;22.36;88.52;99728.94;1711482;81;21205;-71
2022/08/13 07:21:39;;;;;;;13.80;10.43;;;;;;;22.31;89.00;99749.11;1714348;82;21036;-73
2022/08/13 07:24:09;;;;;;;14.40;12.37;;;;;;;22.26;88.76;99751.21;1707112;82;21013;-73
2022/08/13 07:26:36;;;;;;;13.78;10.13;;;;;;;22.26;89.18;99742.42;1700546;84;21061;-72
2022/08/13 07:29:05;;;;;;;12.80;10.70;;;;;;;22.23;91.23;99721.17;1709630;81;21041;-73
2022/08/13 07:31:34;;;;;;;19.37;13.08;;;;;;;22.20;90.95;99718.28;1686356;83;21128;-71
2022/08/13 07:34:06;;;;;;;14.95;11.45;;;;;;;22.15;91.21;99695.98;1715552;82;21118;-76
2022/08/13 07:36:37;;;;;;;15.53;10.60;;;;;;;22.20;92.01;99705.95;1662976;85;21600;-78
2022/08/13 07:39:13;;;;;;;16.60;10.25;;;;;;;22.18;93.11;99705.71;1661377;86;20956;-77
2022/08/13 07:41:43;;;;;;;15.18;11.00;;;;;;;22.24;93.67;99719.23;1722835;81;21085;-72
2022/08/13 07:44:13;;;;;;;13.35;12.00;;;;;;;22.25;93.68;99721.66;1717172;83;21199;-74
2022/08/13 07:46:42;;;;;;;18.15;12.85;;;;;;;22.24;93.43;99730.20;1715529;81;22158;-73
2022/08/13 07:49:12;;;;;;;14.43;11.43;;;;;;;22.27;94.09;99730.91;1724143;81;22293;-72
2022/08/13 07:51:41;;;;;;;19.20;13.28;;;;;;;22.26;94.12;99738.32;1713408;81;21057;-74
2022/08/13 07:54:07;;;;;;;22.42;12.43;;;;;;;22.31;93.84;99742.82;1717518;82;21022;-73
2022/08/13 07:56:34;;;;;;;14.13;11.73;;;;;;;22.34;93.24;99745.73;1710486;83;22007;-73
2022/08/13 07:59:08;;;;;;;18.80;13.62;;;;;;;22.34;92.75;99752.59;1710716;82;21022;-75
2022/08/13 08:01:48;;;;;;;19.80;14.53;;;;;;;22.38;92.41;99745.88;1710529;83;20914;-73
2022/08/13 08:04:16;;;;;;;14.47;12.10;;;;;;;22.36;92.24;99735.23;1710652;83;21030;-74
2022/08/13 08:06:47;;;;;;;14.35;11.68;;;;;;;22.44;91.84;99737.17;1712273;82;21085;-74
2022/08/13 08:09:23;;;;;;;18.32;12.93;;;;;;;22.50;91.71;99731.72;1702786;83;21206;-73
2022/08/13 08:14:39;;;;;;;13.65;11.70;;;;;;;22.75;91.72;99728.67;1735316;81;20988;-72
2022/08/13 08:17:11;;;;;;;17.37;11.83;;;;;;;22.88;91.18;99726.83;1740126;82;21024;-77
2022/08/13 08:19:39;;;;;;;13.38;11.95;;;;;;;22.90;89.82;99707.55;1699634;83;21059;-68
2022/08/13 08:22:07;;;;;;;17.30;11.25;;;;;;;22.99;89.09;99706.13;1721016;82;21154;-68
2022/08/13 08:24:35;;;;;;;14.00;12.40;;;;;;;23.00;89.41;99701.69;1716084;81;21054;-75
2022/08/13 08:27:10;;;;;;;17.98;12.00;;;;;;;23.05;89.03;99696.58;1711617;81;21015;-80
2022/08/13 08:29:40;;;;;;;12.05;9.88;;;;;;;23.16;89.73;99692.88;1709792;82;21599;-78
2022/08/13 08:32:12;;;;;;;13.40;11.03;;;;;;;23.30;89.19;99698.35;1685540;83;22232;-75
2022/08/13 08:34:44;;;;;;;16.65;12.98;;;;;;;23.38;88.95;99691.17;1722815;82;21904;-77
2022/08/13 08:42:35;;;;;;;12.05;10.68;;;;;;;23.44;88.58;99678.33;1722951;82;21052;-76
2022/08/13 08:42:38;;;;;;;14.50;12.18;;;;;;;23.60;89.08;99681.81;1702514;84;22389;-77
2022/08/13 08:45:18;;;;;;;19.67;11.97;;;;;;;23.70;88.25;99686.89;1703026;84;21019;-76
2022/08/13 08:47:45;;;;;;;12.95;11.40;;;;;;;23.82;87.70;99696.57;1702113;84;21860;-77
2022/08/13 08:50:12;;;;;;;20.80;12.20;;;;;;;23.90;84.93;99699.80;1703002;84;21014;-76
2022/08/13 08:55:24;;;;;;;18.25;13.95;;;;;;;23.95;83.03;99696.03;1701784;83;21526;-78
2022/08/13 08:57:52;;;;;;;14.05;12.68;;;;;;;23.93;83.48;99704.64;1702713;84;21054;-78
2022/08/13 09:00:20;;;;;;;20.08;12.45;;;;;;;23.88;84.51;99708.97;1702855;84;22059;-79
2022/08/13 09:02:52;;;;;;;19.30;14.07;;;;;;;23.87;84.99;99701.29;1702850;84;21030;-77
2022/08/13 09:05:22;;;;;;;21.17;14.80;;;;;;;23.92;86.17;99694.78;1703431;84;20967;-77
2022/08/13 09:07:50;;;;;;;16.50;13.65;;;;;;;23.92;86.17;99694.78;1702996;84;21515;-75
2022/08/13 09:10:21;;;;;;;19.00;13.70;;;;;;;24.02;86.04;99694.92;1699598;83;21073;-79
2022/08/13 09:12:50;;;;;;;18.37;13.30;;;;;;;24.07;86.20;99690.02;1663857;85;21254;-78
2022/08/13 09:15:21;;;;;;;23.67;14.70;;;;;;;24.08;85.99;99686.11;1682689;85;20992;-79
2022/08/13 09:17:51;;;;;;;19.15;14.47;;;;;;;24.09;86.65;99683.60;1682733;84;20996;-78
2022/08/13 09:20:22;;;;;;;20.40;14.28;;;;;;;24.16;86.45;99680.31;1690250;84;21034;-79
2022/08/13 09:23:12;;;;;;;14.30;12.15;;;;;;;24.28;85.72;99674.84;1684340;85;21071;-78
2022/08/13 09:25:35;;;;;;;18.10;13.48;;;;;;;24.41;84.99;99669.62;1657637;83;21084;-78
2022/08/13 09:28:07;;;;;;;16.62;13.50;;;;;;;24.54;84.15;99670.42;1692340;82;21005;-78
2022/08/13 09:30:31;;;;;;;17.35;12.80;;;;;;;24.66;83.55;99668.47;1684975;84;21033;-77
2022/08/13 09:32:59;;;;;;;17.35;13.55;;;;;;;24.79;81.63;99669.85;1710145;83;21017;-78
2022/08/13 09:35:26;;;;;;;19.32;13.10;;;;;;;24.89;80.75;99665.30;1710144;83;21006;-76
2022/08/13 09:37:58;;;;;;;13.18;10.32;;;;;;;24.99;79.26;99666.98;1709967;84;21751;-75
2022/08/13 09:40:29;;;;;;;13.70;10.05;;;;;;;25.11;77.88;99652.41;1709940;84;20981;-78
2022/08/13 09:43:02;;;;;;;17.77;10.43;;;;;;;25.20;76.18;99647.56;1709820;82;21022;-78
2022/08/13 09:45:38;;;;;;;14.13;10.30;;;;;;;25.29;74.69;99644.09;1670103;85;21066;-80
2022/08/13 09:48:02;;;;;;;12.23;10.93;;;;;;;25.37;73.26;99648.66;1657894;86;21111;-77
2022/08/13 09:50:29;;;;;;;12.30;11.05;;;;;;;25.47;72.88;99644.03;1718726;83;21326;-78
2022/08/13 09:52:56;;;;;;;22.10;16.15;;;;;;;25.55;73.42;99640.95;1690789;84;20943;-79
2022/08/13 09:55:25;;;;;;;13.53;10.70;;;;;;;25.62;73.70;99643.89;1710411;83;21017;-77
2022/08/13 09:58:02;;;;;;;11.78;9.93;;;;;;;25.71;72.72;99641.00;1710332;82;21044;-78
2022/08/13 10:00:33;;;;;;;15.93;10.43;;;;;;;25.76;70.46;99630.50;1710320;83;21045;-78
2022/08/13 10:03:09;;;;;;;11.55;9.60;;;;;;;25.86;71.14;99645.73;1649822;85;21171;-80
2022/08/13 10:05:35;;;;;;;11.35;9.75;;;;;;;25.92;70.60;99645.70;1662563;85;21005;-80
2022/08/13 10:08:06;;;;;;;15.98;11.43;;;;;;;25.99;70.19;99642.54;1661256;86;21422;-81
2022/08/13 10:10:34;;;;;;;14.10;10.38;;;;;;;26.12;70.65;99643.86;1639405;86;21627;-80
2022/08/13 10:13:03;;;;;;;17.98;12.30;;;;;;;26.22;70.57;99641.41;1661552;86;20946;-79
2022/08/13 10:15:32;;;;;;;20.95;11.40;;;;;;;26.29;70.69;99640.77;1660938;85;21324;-79
2022/08/13 10:18:04;;;;;;;19.17;11.93;;;;;;;26.40;68.90;99633.58;1707090;82;20994;-79
2022/08/13 10:20:37;;;;;;;16.67;12.10;;;;;;;26.46;68.24;99639.06;1709865;83;21017;-78
2022/08/13 10:23:09;;;;;;;13.88;11.05;;;;;;;26.50;67.82;99638.56;1710193;83;21642;-78
2022/08/13 10:25:41;;;;;;;11.60;10.43;;;;;;;26.54;68.02;99644.95;1709872;83;21061;-79
2022/08/13 10:28:27;;;;;;;16.45;11.75;;;;;;;26.61;67.04;99636.87;1710389;83;21821;-81
2022/08/13 10:30:56;;;;;;;16.37;12.07;;;;;;;26.67;65.40;99633.23;1710062;83;20985;-80
2022/08/13 10:33:25;;;;;;;17.95;12.23;;;;;;;26.71;64.94;99630.80;1710922;82;20955;-78
2022/08/13 10:35:55;;;;;;;15.05;10.90;;;;;;;26.72;64.45;99638.48;1683854;83;49628;-77
2022/08/13 10:38:26;;;;;;;12.90;10.23;;;;;;;26.73;64.59;99635.37;1709410;83;21065;-77
2022/08/13 10:40:57;;;;;;;18.32;10.43;;;;;;;26.74;63.71;99623.75;1688491;83;21160;-76
2022/08/13 10:43:26;;;;;;;12.45;9.60;;;;;;;26.77;63.65;99624.41;1718368;83;21545;-77
2022/08/13 10:45:59;;;;;;;13.98;10.85;;;;;;;26.85;63.79;99613.19;1718186;82;21118;-79
2022/08/13 10:48:28;;;;;;;23.30;12.23;;;;;;;26.96;63.67;99623.09;1710312;82;21033;-77
2022/08/13 10:50:55;;;;;;;15.75;12.28;;;;;;;27.05;63.85;99618.77;1702990;84;21491;-77
2022/08/13 10:56:09;;;;;;;17.55;12.30;;;;;;;27.18;63.50;99610.56;1703034;84;20974;-79
2022/08/13 10:58:38;;;;;;;16.45;11.75;;;;;;;27.31;62.97;99611.44;1702866;84;20962;-77
2022/08/13 11:01:08;;;;;;;28.98;12.10;;;;;;;27.45;62.13;99610.92;1681200;84;21046;-80
2022/08/13 11:03:35;;;;;;;14.85;11.45;;;;;;;27.56;61.94;99603.69;1704928;82;21070;-79
2022/08/13 11:06:04;;;;;;;13.55;11.22;;;;;;;27.67;61.81;99605.28;1710442;83;21965;-79
2022/08/13 11:08:34;;;;;;;18.02;12.07;;;;;;;27.70;62.03;99601.19;1710325;83;21016;-77
2022/08/13 11:11:01;;;;;;;15.10;11.38;;;;;;;27.77;61.60;99596.36;1703273;83;21047;-77
2022/08/13 11:13:28;;;;;;;14.18;11.12;;;;;;;27.84;60.50;99592.36;1696535;84;21128;-79
2022/08/13 11:15:58;;;;;;;14.05;11.93;;;;;;;27.87;59.92;99590.81;1700279;81;21060;-77
2022/08/13 11:18:27;;;;;;;14.28;12.68;;;;;;;27.84;59.81;99587.41;1697134;82;21539;-77
2022/08/13 11:21:06;;;;;;;17.20;11.73;;;;;;;27.85;60.16;99591.20;1699173;82;20978;-78
2022/08/13 11:23:34;;;;;;;12.82;10.50;;;;;;;27.92;60.15;99589.13;1712012;82;21160;-78
2022/08/13 11:26:01;;;;;;;12.82;11.12;;;;;;;27.97;59.51;99586.05;1712835;83;21058;-78
2022/08/13 11:28:29;;;;;;;15.15;11.22;;;;;;;28.00;59.54;99591.67;1698962;84;21061;-78
2022/08/13 11:30:56;;;;;;;11.55;10.25;;;;;;;27.94;59.24;99577.92;1702954;84;21242;-77
2022/08/13 11:33:24;;;;;;;11.33;10.32;;;;;;;27.91;59.57;99585.59;1700909;84;21025;-78
2022/08/13 11:35:54;;;;;;;16.10;11.60;;;;;;;27.97;59.79;99584.09;1689512;83;21020;-77
2022/08/13 11:38:21;;;;;;;17.20;10.95;;;;;;;28.03;59.24;99586.77;1703034;84;21118;-79
2022/08/13 11:40:56;;;;;;;14.47;11.18;;;;;;;28.07;59.03;99586.83;1703216;84;21589;-78
2022/08/13 11:43:29;;;;;;;12.07;10.40;;;;;;;28.16;58.85;99588.78;1702903;84;21812;-77
2022/08/13 11:45:57;;;;;;;15.85;9.93;;;;;;;28.20;58.06;99587.48;1691793;83;21034;-80
2022/08/13 11:48:24;;;;;;;13.50;10.38;;;;;;;28.23;57.43;99582.58;1661465;84;21092;-75
2022/08/13 11:50:51;;;;;;;12.80;10.15;;;;;;;28.37;56.81;99585.00;1670946;85;21086;-76
2022/08/13 11:53:18;;;;;;;15.03;10.80;;;;;;;28.51;55.94;99584.41;1661183;86;21000;-77
2022/08/13 11:55:45;;;;;;;16.02;10.85;;;;;;;28.58;55.84;99579.77;1661401;86;21214;-79
2022/08/13 11:58:14;;;;;;;16.82;10.85;;;;;;;28.62;55.82;99572.93;1661372;86;21035;-77
2022/08/13 12:00:46;;;;;;;11.73;9.40;;;;;;;28.58;55.82;99586.69;1661405;86;21032;-77